Rawalakot Weather



Rawalakot's Current Weather

Temprature 19.47o clear sky

clear sky

Rain: 0 %

Min Temprature19.47o
Max Temprature19.47o
Humidity60
Wind Speed0.97 m/h
Sun Rise05:55:28
Sun Set17:57:21
Current Time: 26-Sep-2022 09:10:05
Lat/Lon: 33.858, 73.7604




Rawalakot's Geo Location



Rawalakot's Weather Forecast

Time Overall Temp Min Temp Max Temp Humidity Wind Speed Rain
26-Sep-2022 (Mon)
11:00:00 clear sky 19.000 19.000 21.050 63 2.27 m/h 0 %
14:00:00 clear sky 20.600 20.600 21.910 61 2.16 m/h 0 %
17:00:00 clear sky 20.480 20.480 20.480 73 1.53 m/h 0 %
20:00:00 clear sky 16.040 16.040 16.040 85 1.52 m/h 0 %
23:00:00 clear sky 15.390 15.390 15.390 82 1.77 m/h 0 %
27-Sep-2022 (Tue)
02:00:00 clear sky 15.010 15.010 15.010 80 1.62 m/h 0 %
05:00:00 clear sky 14.600 14.600 14.600 80 1.76 m/h 0 %
08:00:00 clear sky 18.690 18.690 18.690 68 0.08 m/h 0 %
11:00:00 clear sky 21.500 21.500 21.500 62 2.3 m/h 0 %
14:00:00 light rain 22.510 22.510 22.510 61 2.42 m/h 18 %
17:00:00 light rain 20.350 20.350 20.350 75 1.6 m/h 36 %
20:00:00 scattered clouds 16.830 16.830 16.830 84 1.49 m/h 0 %
23:00:00 light rain 15.740 15.740 15.740 85 1.82 m/h 13 %
28-Sep-2022 (Wed)
02:00:00 clear sky 15.080 15.080 15.080 84 1.93 m/h 0 %
05:00:00 clear sky 14.730 14.730 14.730 83 1.94 m/h 0 %
08:00:00 clear sky 18.800 18.800 18.800 70 0.27 m/h 0 %
11:00:00 clear sky 21.850 21.850 21.850 59 2.18 m/h 0 %
14:00:00 light rain 23.170 23.170 23.170 54 2.46 m/h 11 %
17:00:00 light rain 20.880 20.880 20.880 69 1.65 m/h 28 %
20:00:00 few clouds 16.420 16.420 16.420 81 1.65 m/h 0 %
23:00:00 light rain 15.310 15.310 15.310 79 2.43 m/h 12 %
29-Sep-2022 (Thu)
02:00:00 clear sky 14.750 14.750 14.750 76 2.5 m/h 0 %
05:00:00 clear sky 14.090 14.090 14.090 65 2.61 m/h 0 %
08:00:00 few clouds 18.660 18.660 18.660 53 1.08 m/h 0 %
11:00:00 few clouds 22.250 22.250 22.250 47 2.01 m/h 0 %
14:00:00 clear sky 23.210 23.210 23.210 49 2.42 m/h 0 %
17:00:00 light rain 20.270 20.270 20.270 69 1.06 m/h 260 %
20:00:00 light rain 15.740 15.740 15.740 77 2.36 m/h 106 %
23:00:00 clear sky 15.430 15.430 15.430 75 2.34 m/h 0 %
30-Sep-2022 (Fri)
02:00:00 clear sky 14.950 14.950 14.950 76 2.51 m/h 0 %
05:00:00 clear sky 14.430 14.430 14.430 73 2.59 m/h 0 %
08:00:00 clear sky 19.040 19.040 19.040 58 0.64 m/h 0 %
11:00:00 clear sky 22.480 22.480 22.480 51 1.95 m/h 0 %
14:00:00 few clouds 23.550 23.550 23.550 48 2.42 m/h 0 %
17:00:00 light rain 20.290 20.290 20.290 68 1.33 m/h 71 %
20:00:00 light rain 16.820 16.820 16.820 75 2.07 m/h 20 %
23:00:00 few clouds 15.730 15.730 15.730 75 2.46 m/h 0 %
01-Oct-2022 (Sat)
02:00:00 clear sky 15.170 15.170 15.170 75 2.52 m/h 0 %
05:00:00 clear sky 14.750 14.750 14.750 72 2.49 m/h 0 %
08:00:00 scattered clouds 18.560 18.560 18.560 60 1.1 m/h 0 %

Famous Cities (61)